• Join FlightAware (Why Join?)
  • Login
  • US Flag 
10:09PM EDT


 

Airport Tracker/Info


-or-


 

Live Flight TrackerFlight Track Log ✈ N493TM ✈ 18-Oct-2013 ✈ CYYZ - KHPN

Flight Track Log - Related Links

Times and Time Zones

All times are in EDT time to prevent confusion due to time zone crossing. See the N493TM flight status page for this flight to view local times or setup timezone preferences in your user account.

Time Position Orientation Groundspeed Altitude Reporting Facility
EDT Latitude Longitude Course Direction KTS MPH feet Rate Location/Type
09:57PM 43.6500 -79.6833 123° Southeast 170 196 3,300  Level Toronto Center
09:58PM 43.6000 -79.7000 194° South 200 230 5,800 2,700 Climbing Toronto Center
09:59PM 43.5500 -79.6333 136° Southeast 290 334 8,700 2,940 Climbing Toronto Center
10:00PM 43.5333 -79.5000 100° East 330 380 11,700 2,700 Climbing Toronto Center
10:01PM 43.5167 -79.3833 101° East 350 403 14,200 2,400 Climbing Toronto Center
10:02PM 43.4833 -79.2167 105° East 380 437 16,500 2,160 Climbing Toronto Center
10:03PM 43.3463 -78.8100 123° Southeast  Level Estimated
10:03PM 43.4500 -79.0833 109° East 390 449 18,600  Level Toronto Center
10:04PM 43.4167 -78.9500 109° East 390 449 20,800 1,980 Climbing Toronto Center
10:05PM 43.3667 -78.8000 115° Southeast 400 460 22,600 1,440 Climbing Toronto Center
10:06PM 43.3333 -78.6500 107° East 420 483 23,700 1,020 Climbing Toronto Center
10:07PM 43.2667 -78.4833 119° Southeast 450 518 24,700 600 Climbing Toronto Center
10:08PM 43.2167 -78.3333 115° Southeast 460 529 25,000 120 Climbing Toronto Center
10:09PM 43.1667 -78.1667 112° Southeast 490 564 25,000  Level Toronto Center
10:10PM 43.1167 -77.9667 109° East 500 575 25,000  Level Toronto Center
10:11PM 43.0667 -77.8000 112° Southeast 510 587 25,000  Level Toronto Center
10:12PM 43.0606 -77.7569 101° East 507 583 25,000  Level Cleveland Center
10:13PM 43.0064 -77.5767 112° Southeast 508 585 25,000  Level Cleveland Center
10:14PM 42.9522 -77.3975 112° Southeast 507 583 25,000  Level Cleveland Center
10:15PM 42.8983 -77.2200 112° Southeast 504 580 25,000  Level Cleveland Center
10:16PM 42.8439 -77.0419 113° Southeast 506 582 25,000  Level Cleveland Center
10:17PM 42.7856 -76.8569 113° Southeast 514 592 25,000  Level Boston Center
10:18PM 42.7319 -76.6833 113° Southeast 507 583 25,000  Level Boston Center
10:19PM 42.6778 -76.5044 112° Southeast 507 583 25,000  Level Boston Center
10:20PM 42.6214 -76.3314 114° Southeast 507 583 25,000  Level Boston Center
10:21PM 42.5631 -76.1417 113° Southeast 507 583 25,000  Level Boston Center
10:22PM 42.5061 -75.9636 113° Southeast 502 578 25,000  Level Boston Center
10:23PM 42.4508 -75.7917 113° Southeast 502 578 25,000  Level Boston Center
10:24PM 42.3956 -75.6200 114° Southeast 502 578 25,000  Level Boston Center
10:25PM 42.3394 -75.4542 115° Southeast 496 571 25,000 -300 Level Boston Center
10:26PM 42.2894 -75.2944 113° Southeast 491 565 24,500 -1,740 Descending Boston Center
10:27PM 42.2292 -75.1150 114° Southeast 491 565 21,500 -2,760 Descending Boston Center
10:28PM 42.1767 -74.9531 114° Southeast 474 545 19,100 -1,380 Descending Boston Center
10:29PM 42.1169 -74.8164 120° Southeast 449 517 18,800 -840 Descending Boston Center
10:30PM 42.0614 -74.6828 119° Southeast 424 488 17,500 -1,380 Descending Boston Center
10:31PM 42.0075 -74.5553 120° Southeast 424 488 16,100 -1,440 Descending Boston Center
10:32PM 41.9456 -74.4081 119° Southeast 419 482 14,600 -1,440 Descending Boston Center
10:33PM 41.8956 -74.2892 119° Southeast 414 476 13,300 -1,500 Descending Boston Center
10:34PM 41.8289 -74.1536 123° Southeast 409 471 11,700 -1,380 Descending Boston Center
10:35PM 41.7422 -74.0872 150° Southeast 369 425 10,600 -1,200 Descending Boston Center
10:36PM 41.6681 -74.0353 152° Southeast 336 387 9,400 -1,320 Descending Boston Center
10:37PM 41.6000 -73.9833 150° Southeast 294 338 8,100 -1,440 Descending New York TRACON
10:38PM 41.5333 -73.9500 159° South 297 342 6,700 -1,020 Descending New York TRACON
10:39PM 41.4500 -73.9000 156° South 277 319 6,100 -600 Descending New York TRACON
10:40PM 41.3833 -73.8333 143° Southeast 297 342 5,500 -900 Descending New York TRACON
10:41PM 41.3167 -73.7833 151° Southeast 290 334 4,300 -1,200 Descending New York TRACON
10:42PM 41.2500 -73.7167 143° Southeast 280 322 3,100 -840 Descending New York TRACON
10:43PM 41.2000 -73.6667 143° Southeast 280 322 2,700 -540 Descending New York TRACON
10:44PM 41.1333 -73.6167 151° Southeast 256 295 2,100 -300 Descending New York TRACON
10:45PM 41.0833 -73.5833 153° Southeast 197 227 2,100  Level New York TRACON
10:46PM 41.0333 -73.6167 207° Southwest 184 212 2,100 -300 Level New York TRACON
10:47PM 41.0167 -73.6500 236° Southwest 127 146 1,600 -600 Descending New York TRACON
10:48PM 41.0333 -73.6833 304° West 121 139 1,000 -600 Descending New York TRACON